Portada
METAR-TAF:

METAR-TAF

Aeroports :

Amman, Jordània

latitud: 31-59N, longitud: 035-59E, altitud: 767 m

Observació

L'informe es va fer fa 17 minuts, a les 05:00 UTC
Vent 2 kt del Nord/Nord-Est
Temperatura 9°C
Humitat 87%
Pressió 1019 hPa
Visibilitat: 3900 m
fum

METAR: OJAM 300500Z 03002KT 8000 3900E FU NSC 09/07 Q1019 NOSIG

Hora: 07:17 (05:17 UTC)

Pronòstic

L'informe es va fer fa 6 hores i 17 minuts, a les 23:00 UTC
Pronòstic vàlid del 30 a les 00 UTC al 01 a les 06 UTC
Vent 6 kt del Est/Sud-Est
Visibilitat: 5000 m
Escasses núvols a una alçada de 3000 ft
calitja
Probabilitat 40%
l' 30 a les 01 UTC al 30 a les 06 UTC
Vent 2 kt amb direcció variable
Visibilitat: 2000 m
boirina

TAF: OJAM 292300Z 3000/0106 12006KT 5000 HZ FEW030 PROB40 3001/3006 VRB02KT 2000 BR

Observacions i pronòstics meteorològics de més de 4000 aeroports (METAR i TAF).

Les estacions disponibles són els punts grocs i vermells al mapa.

Posi el ratolí al punt desitjat per veure el nom de l'estació.

Feu clic per veure les observacions i els pronòstics meteorològics.

Per canviar el mapa: feu clic els botons verds amb una creu de color negre per apropar; al botó verd amb un guió per allunyar la imatge; o en les fletxes verdes per a mapes adjacents.


METAR-TAF: